Emerald Princess — ZCDP8 — position and weather

sailwx.info

Track history (hours):
 
Tides and Currents Weather Stations Pressure Air Temp Water Temp Dewpoint Dewpoint Depression Visibility Wind Speed Wind Dir Waves Ship Positions

Emerald Princess

Last reported at 2018-Sep-22 07:30 UTC. Time now 2018-Sep-22 07:52 UTC.
Position N 50°20' W 128°54'.

Type: Ship. MMSI: 310531000.

Date/timePositionNaut miles runAvg speedWind from/ knotsBaromVisibWave heightAir tempDewpointWater temp
2018-Sep-22 07:30N 50°20' W 128°54'2119.0
2018-Sep-22 06:24N 50°34' W 129°19'1819.3
2018-Sep-22 05:27N 50°47' W 129°40'25120.6
2018-Sep-21 17:19N 54°09' W 133°42'  
2018-Sep-18 08:10N 54°32' W 131°21'214.4
2018-Sep-18 08:02N 54°31' W 131°20'114.6
2018-Sep-18 07:59N 54°30' W 131°19'714.4
2018-Sep-18 07:30N 54°25' W 131°12'714.9
2018-Sep-18 07:03N 54°19' W 131°06'114.8
2018-Sep-18 07:00N 54°18' W 131°05'714.3
2018-Sep-18 06:31N 54°11' W 131°03'714.8
2018-Sep-18 06:04N 54°05' W 131°03'114.6
2018-Sep-18 06:00N 54°04' W 131°03'815.2
2018-Sep-18 05:30N 53°56' W 131°04'715.8
2018-Sep-18 05:03N 53°49' W 131°05'115.7
2018-Sep-18 05:00N 53°49' W 131°05'815.7
2018-Sep-18 04:30N 53°41' W 131°04'716.7
2018-Sep-18 04:03N 53°33' W 131°03'116.3
2018-Sep-18 04:00N 53°32' W 131°03'916.9
2018-Sep-18 03:27N 53°23' W 131°01'916.9
2018-Sep-18 02:57N 53°15' W 130°56'8617.4
2018-Sep-17 22:02N 51°55' W 130°08'2319.0
2018-Sep-17 20:49N 51°33' W 129°56'1019.4
2018-Sep-17 20:18N 51°24' W 129°50'519.4
2018-Sep-17 20:03N 51°19' W 129°47'118.7
2018-Sep-17 20:00N 51°18' W 129°46'918.9
2018-Sep-17 19:30N 51°09' W 129°42'17318.3
2018-Sep-17 10:05N 49°03' W 126°38'219.0
2018-Sep-17 09:58N 49°02' W 126°35'1419.6
2018-Sep-17 09:14N 48°55' W 126°16'421.3
2018-Sep-17 09:03N 48°52' W 126°11'121.5
2018-Sep-17 09:00N 48°52' W 126°10'1121.0
2018-Sep-17 08:30N 48°46' W 125°57'1021.0
2018-Sep-17 08:03N 48°41' W 125°44'120.6
2018-Sep-17 08:00N 48°41' W 125°43'1020.9
2018-Sep-17 07:30N 48°36' W 125°29'920.6
2018-Sep-17 07:04N 48°32' W 125°17'120.2
2018-Sep-17 07:01N 48°31' W 125°15'1020.6
2018-Sep-17 06:30N 48°31' W 124°59'920.7
2018-Sep-17 06:04N 48°31' W 124°45'120.5
2018-Sep-17 06:01N 48°30' W 124°44'1020.8
2018-Sep-17 05:31N 48°27' W 124°29'920.9
2018-Sep-17 05:03N 48°23' W 124°16'121.2
2018-Sep-17 05:00N 48°23' W 124°15'1120.9
2018-Sep-17 04:29N 48°19' W 123°60'920.8
2018-Sep-17 04:03N 48°17' W 123°46'120.6
2018-Sep-17 04:00N 48°17' W 123°45'1019.8
2018-Sep-17 03:30N 48°15' W 123°30'817.3
2018-Sep-17 03:03N 48°09' W 123°22'1 8.6
2018-Sep-17 02:58N 48°09' W 123°21'816.6
2018-Sep-17 02:30N 48°12' W 123°11'918.1
2018-Sep-17 02:02N 48°12' W 122°58'118.4
2018-Sep-17 01:57N 48°12' W 122°56'918.4
2018-Sep-17 01:28N 48°09' W 122°43'1320.2
2018-Sep-17 00:48N 47°58' W 122°33'619.8
2018-Sep-17 00:30N 47°53' W 122°28'1021.4
2018-Sep-17 00:03N 47°43' W 122°27'121.0
2018-Sep-17 00:00N 47°42' W 122°27'611.4
2018-Sep-16 23:30N 47°37' W 122°23'0 1.0
2018-Sep-16 23:02N 47°38' W 122°23'0 0.0
2018-Sep-16 22:59N 47°38' W 122°23'0 0.0
2018-Sep-16 22:25N 47°38' W 122°23'0 0.0
2018-Sep-16 21:58N 47°38' W 122°23'0 0.0
2018-Sep-16 21:25N 47°38' W 122°23'0 0.0
2018-Sep-16 21:01N 47°38' W 122°23'0 0.0
2018-Sep-16 20:58N 47°38' W 122°23'0 0.0
2018-Sep-16 20:30N 47°38' W 122°23'0 0.0
2018-Sep-16 20:00N 47°38' W 122°23'0 0.0
2018-Sep-16 19:30N 47°38' W 122°23'0 0.0
2018-Sep-16 19:03N 47°38' W 122°23'0 0.0
2018-Sep-16 19:00N 47°38' W 122°23'0 0.0
2018-Sep-16 18:30N 47°38' W 122°23'0 0.0
2018-Sep-16 18:02N 47°38' W 122°23'0 0.0
2018-Sep-16 17:59N 47°38' W 122°23'0 0.0
2018-Sep-16 17:29N 47°38' W 122°23'0 0.0
2018-Sep-16 17:02N 47°38' W 122°23'0 0.0
2018-Sep-16 16:59N 47°38' W 122°23'0 0.0
2018-Sep-16 16:29N 47°38' W 122°23'0 0.0
2018-Sep-16 15:58N 47°38' W 122°23'0 0.0
2018-Sep-16 15:28N 47°38' W 122°23'0 0.0
2018-Sep-16 15:01N 47°38' W 122°23'0 0.0
2018-Sep-16 14:58N 47°38' W 122°23'0 0.0
2018-Sep-16 14:01N 47°38' W 122°23'0 0.0
2018-Sep-16 13:30N 47°38' W 122°23'0 0.0
2018-Sep-16 13:03N 47°38' W 122°23'0 0.0
2018-Sep-16 12:52N 47°38' W 122°23'1 1.7
2018-Sep-16 12:30N 47°37' W 122°23'3 7.6
2018-Sep-16 12:03N 47°39' W 122°27'112.6
2018-Sep-16 12:00N 47°40' W 122°28'612.6
2018-Sep-16 11:30N 47°46' W 122°27'612.9
2018-Sep-16 11:03N 47°51' W 122°29'113.1
2018-Sep-16 11:00N 47°52' W 122°29'2214.8
2018-Sep-16 09:32N 48°10' W 122°47'115.7
2018-Sep-16 09:30N 48°10' W 122°48'816.8
2018-Sep-16 09:01N 48°12' W 122°60'017.4
2018-Sep-16 09:00N 48°12' W 123°00'917.7
2018-Sep-16 08:30N 48°12' W 123°13'715.6
2018-Sep-16 08:01N 48°10' W 123°25'010.1
2018-Sep-16 07:59N 48°10' W 123°25'1112.2
2018-Sep-16 07:06N 48°21' W 123°26'116.1
2018-Sep-16 07:03N 48°22' W 123°25'114.5
2018-Sep-16 07:00N 48°23' W 123°25'3 0.4
2018-Sep-15 23:41N 48°25' W 123°24'0 0.4
2018-Sep-15 23:30N 48°25' W 123°24'1 2.2
2018-Sep-15 23:03N 48°24' W 123°24'0 7.8
2018-Sep-15 23:01N 48°24' W 123°24'4 8.2
2018-Sep-15 22:30N 48°20' W 123°25'511.3
2018-Sep-15 22:03N 48°15' W 123°28'114.5
2018-Sep-15 22:00N 48°15' W 123°29'713.1
2018-Sep-15 21:29N 48°14' W 123°39'913.6
2018-Sep-15 20:51N 48°14' W 123°52'513.8
2018-Sep-15 20:28N 48°15' W 123°60'615.3
2018-Sep-15 20:03N 48°18' W 124°09'115.8
2018-Sep-15 20:00N 48°18' W 124°10'815.2
2018-Sep-15 19:30N 48°21' W 124°20'715.1
2018-Sep-15 19:03N 48°24' W 124°29'114.9
2018-Sep-15 19:00N 48°24' W 124°30'613.0
2018-Sep-15 18:30N 48°27' W 124°39'715.8
2018-Sep-15 18:03N 48°29' W 124°50'116.0
2018-Sep-15 18:00N 48°29' W 124°51'817.1
2018-Sep-15 17:30N 48°29' W 125°04'818.3
2018-Sep-15 17:03N 48°31' W 125°16'118.7
2018-Sep-15 17:00N 48°31' W 125°17'918.5
2018-Sep-15 16:30N 48°36' W 125°29'818.8
2018-Sep-15 16:03N 48°41' W 125°40'119.4
2018-Sep-15 16:00N 48°41' W 125°41'919.0
2018-Sep-15 15:30N 48°46' W 125°53'818.4
2018-Sep-15 15:03N 48°50' W 126°04'1018.2
2018-Sep-15 14:31N 48°55' W 126°17'1019.0
2018-Sep-15 14:00N 49°00' W 126°29'1019.2
2018-Sep-15 13:30N 49°05' W 126°42'919.2
2018-Sep-15 13:01N 49°10' W 126°54'119.4
2018-Sep-15 12:59N 49°11' W 126°55'10219.1
2018-Sep-15 07:37N 50°20' W 128°51'220.4
2018-Sep-15 07:31N 50°21' W 128°54'1020.8
2018-Sep-15 07:01N 50°28' W 129°07'121.1
2018-Sep-15 06:57N 50°29' W 129°09'  
Track history (hours):
 
Tides and Currents Weather Stations Pressure Air Temp Water Temp Dewpoint Dewpoint Depression Visibility Wind Speed Wind Dir Waves Ship Positions

Emerald Princess

Last reported at 2018-Sep-22 07:30 UTC. Time now 2018-Sep-22 07:52 UTC.
Position N 50°20' W 128°54'.

Type: Ship. MMSI: 310531000.

Date/timePositionNaut miles runAvg speedWind from/ knotsBaromVisibWave heightAir tempDewpointWater temp
2018-Sep-22 07:30N 50°20' W 128°54'2119.0
2018-Sep-22 06:24N 50°34' W 129°19'1819.3
2018-Sep-22 05:27N 50°47' W 129°40'25120.6
2018-Sep-21 17:19N 54°09' W 133°42'  
2018-Sep-18 08:10N 54°32' W 131°21'214.4
2018-Sep-18 08:02N 54°31' W 131°20'114.6
2018-Sep-18 07:59N 54°30' W 131°19'714.4
2018-Sep-18 07:30N 54°25' W 131°12'714.9
2018-Sep-18 07:03N 54°19' W 131°06'114.8
2018-Sep-18 07:00N 54°18' W 131°05'714.3
2018-Sep-18 06:31N 54°11' W 131°03'714.8
2018-Sep-18 06:04N 54°05' W 131°03'114.6
2018-Sep-18 06:00N 54°04' W 131°03'815.2
2018-Sep-18 05:30N 53°56' W 131°04'715.8
2018-Sep-18 05:03N 53°49' W 131°05'115.7
2018-Sep-18 05:00N 53°49' W 131°05'815.7
2018-Sep-18 04:30N 53°41' W 131°04'716.7
2018-Sep-18 04:03N 53°33' W 131°03'116.3
2018-Sep-18 04:00N 53°32' W 131°03'916.9
2018-Sep-18 03:27N 53°23' W 131°01'916.9
2018-Sep-18 02:57N 53°15' W 130°56'8617.4
2018-Sep-17 22:02N 51°55' W 130°08'2319.0
2018-Sep-17 20:49N 51°33' W 129°56'1019.4
2018-Sep-17 20:18N 51°24' W 129°50'519.4
2018-Sep-17 20:03N 51°19' W 129°47'118.7
2018-Sep-17 20:00N 51°18' W 129°46'918.9
2018-Sep-17 19:30N 51°09' W 129°42'17318.3
2018-Sep-17 10:05N 49°03' W 126°38'219.0
2018-Sep-17 09:58N 49°02' W 126°35'1419.6
2018-Sep-17 09:14N 48°55' W 126°16'421.3
2018-Sep-17 09:03N 48°52' W 126°11'121.5
2018-Sep-17 09:00N 48°52' W 126°10'1121.0
2018-Sep-17 08:30N 48°46' W 125°57'1021.0
2018-Sep-17 08:03N 48°41' W 125°44'120.6
2018-Sep-17 08:00N 48°41' W 125°43'1020.9
2018-Sep-17 07:30N 48°36' W 125°29'920.6
2018-Sep-17 07:04N 48°32' W 125°17'120.2
2018-Sep-17 07:01N 48°31' W 125°15'1020.6
2018-Sep-17 06:30N 48°31' W 124°59'920.7
2018-Sep-17 06:04N 48°31' W 124°45'120.5
2018-Sep-17 06:01N 48°30' W 124°44'1020.8
2018-Sep-17 05:31N 48°27' W 124°29'920.9
2018-Sep-17 05:03N 48°23' W 124°16'121.2
2018-Sep-17 05:00N 48°23' W 124°15'1120.9
2018-Sep-17 04:29N 48°19' W 123°60'920.8
2018-Sep-17 04:03N 48°17' W 123°46'120.6
2018-Sep-17 04:00N 48°17' W 123°45'1019.8
2018-Sep-17 03:30N 48°15' W 123°30'817.3
2018-Sep-17 03:03N 48°09' W 123°22'1 8.6
2018-Sep-17 02:58N 48°09' W 123°21'816.6
2018-Sep-17 02:30N 48°12' W 123°11'918.1
2018-Sep-17 02:02N 48°12' W 122°58'118.4
2018-Sep-17 01:57N 48°12' W 122°56'918.4
2018-Sep-17 01:28N 48°09' W 122°43'1320.2
2018-Sep-17 00:48N 47°58' W 122°33'619.8
2018-Sep-17 00:30N 47°53' W 122°28'1021.4
2018-Sep-17 00:03N 47°43' W 122°27'121.0
2018-Sep-17 00:00N 47°42' W 122°27'611.4
2018-Sep-16 23:30N 47°37' W 122°23'0 1.0
2018-Sep-16 23:02N 47°38' W 122°23'0 0.0
2018-Sep-16 22:59N 47°38' W 122°23'0 0.0
2018-Sep-16 22:25N 47°38' W 122°23'0 0.0
2018-Sep-16 21:58N 47°38' W 122°23'0 0.0
2018-Sep-16 21:25N 47°38' W 122°23'0 0.0
2018-Sep-16 21:01N 47°38' W 122°23'0 0.0
2018-Sep-16 20:58N 47°38' W 122°23'0 0.0
2018-Sep-16 20:30N 47°38' W 122°23'0 0.0
2018-Sep-16 20:00N 47°38' W 122°23'0 0.0
2018-Sep-16 19:30N 47°38' W 122°23'0 0.0
2018-Sep-16 19:03N 47°38' W 122°23'0 0.0
2018-Sep-16 19:00N 47°38' W 122°23'0 0.0
2018-Sep-16 18:30N 47°38' W 122°23'0 0.0
2018-Sep-16 18:02N 47°38' W 122°23'0 0.0
2018-Sep-16 17:59N 47°38' W 122°23'0 0.0
2018-Sep-16 17:29N 47°38' W 122°23'0 0.0
2018-Sep-16 17:02N 47°38' W 122°23'0 0.0
2018-Sep-16 16:59N 47°38' W 122°23'0 0.0
2018-Sep-16 16:29N 47°38' W 122°23'0 0.0
2018-Sep-16 15:58N 47°38' W 122°23'0 0.0
2018-Sep-16 15:28N 47°38' W 122°23'0 0.0
2018-Sep-16 15:01N 47°38' W 122°23'0 0.0
2018-Sep-16 14:58N 47°38' W 122°23'0 0.0
2018-Sep-16 14:01N 47°38' W 122°23'0 0.0
2018-Sep-16 13:30N 47°38' W 122°23'0 0.0
2018-Sep-16 13:03N 47°38' W 122°23'0 0.0
2018-Sep-16 12:52N 47°38' W 122°23'1 1.7
2018-Sep-16 12:30N 47°37' W 122°23'3 7.6
2018-Sep-16 12:03N 47°39' W 122°27'112.6
2018-Sep-16 12:00N 47°40' W 122°28'612.6
2018-Sep-16 11:30N 47°46' W 122°27'612.9
2018-Sep-16 11:03N 47°51' W 122°29'113.1
2018-Sep-16 11:00N 47°52' W 122°29'2214.8
2018-Sep-16 09:32N 48°10' W 122°47'115.7
2018-Sep-16 09:30N 48°10' W 122°48'816.8
2018-Sep-16 09:01N 48°12' W 122°60'017.4
2018-Sep-16 09:00N 48°12' W 123°00'917.7
2018-Sep-16 08:30N 48°12' W 123°13'715.6
2018-Sep-16 08:01N 48°10' W 123°25'010.1
2018-Sep-16 07:59N 48°10' W 123°25'1112.2
2018-Sep-16 07:06N 48°21' W 123°26'116.1
2018-Sep-16 07:03N 48°22' W 123°25'114.5
2018-Sep-16 07:00N 48°23' W 123°25'3 0.4
2018-Sep-15 23:41N 48°25' W 123°24'0 0.4
2018-Sep-15 23:30N 48°25' W 123°24'1 2.2
2018-Sep-15 23:03N 48°24' W 123°24'0 7.8
2018-Sep-15 23:01N 48°24' W 123°24'4 8.2
2018-Sep-15 22:30N 48°20' W 123°25'511.3
2018-Sep-15 22:03N 48°15' W 123°28'114.5
2018-Sep-15 22:00N 48°15' W 123°29'713.1
2018-Sep-15 21:29N 48°14' W 123°39'913.6
2018-Sep-15 20:51N 48°14' W 123°52'513.8
2018-Sep-15 20:28N 48°15' W 123°60'615.3
2018-Sep-15 20:03N 48°18' W 124°09'115.8
2018-Sep-15 20:00N 48°18' W 124°10'815.2
2018-Sep-15 19:30N 48°21' W 124°20'715.1
2018-Sep-15 19:03N 48°24' W 124°29'114.9
2018-Sep-15 19:00N 48°24' W 124°30'613.0
2018-Sep-15 18:30N 48°27' W 124°39'715.8
2018-Sep-15 18:03N 48°29' W 124°50'116.0
2018-Sep-15 18:00N 48°29' W 124°51'817.1
2018-Sep-15 17:30N 48°29' W 125°04'818.3
2018-Sep-15 17:03N 48°31' W 125°16'118.7
2018-Sep-15 17:00N 48°31' W 125°17'918.5
2018-Sep-15 16:30N 48°36' W 125°29'818.8
2018-Sep-15 16:03N 48°41' W 125°40'119.4
2018-Sep-15 16:00N 48°41' W 125°41'919.0
2018-Sep-15 15:30N 48°46' W 125°53'818.4
2018-Sep-15 15:03N 48°50' W 126°04'1018.2
2018-Sep-15 14:31N 48°55' W 126°17'1019.0
2018-Sep-15 14:00N 49°00' W 126°29'1019.2
2018-Sep-15 13:30N 49°05' W 126°42'919.2
2018-Sep-15 13:01N 49°10' W 126°54'119.4
2018-Sep-15 12:59N 49°11' W 126°55'10219.1
2018-Sep-15 07:37N 50°20' W 128°51'220.4
2018-Sep-15 07:31N 50°21' W 128°54'1020.8
2018-Sep-15 07:01N 50°28' W 129°07'121.1
2018-Sep-15 06:57N 50°29' W 129°09'  

Dump ship's entire track history